createdAt,value
2023-05-16T06:53:31.017Z,51.156063
2023-05-16T06:54:30.816Z,51.156075
2023-05-16T06:55:30.722Z,51.156078
2023-05-16T06:56:30.591Z,51.156105
2023-05-16T06:57:30.889Z,51.156071
2023-05-16T06:58:30.473Z,51.156090
2023-05-16T06:59:30.451Z,51.156078
2023-05-16T07:00:31.187Z,51.156094
2023-05-16T07:01:30.574Z,51.156090
2023-05-16T07:02:30.525Z,51.156075
2023-05-16T07:03:30.860Z,51.156086
2023-05-16T07:04:30.475Z,51.156071
2023-05-16T07:10:35.964Z,51.156075
2023-05-16T07:11:35.664Z,51.156071
2023-05-16T07:12:35.711Z,51.156082
2023-05-16T07:13:36.219Z,51.156078
2023-05-16T07:14:36.627Z,51.156094
2023-05-16T07:15:35.832Z,51.156139
2023-05-16T07:16:35.604Z,51.156094
2023-05-16T07:17:35.685Z,51.156078
2023-05-16T07:18:35.696Z,51.156075
2023-05-16T07:19:35.596Z,51.156059
2023-05-16T07:20:35.619Z,51.156067
2023-05-16T07:21:35.586Z,51.156078
2023-05-16T07:22:35.533Z,51.156067
2023-05-16T07:23:35.573Z,51.156082
2023-05-16T07:24:35.987Z,51.156090
2023-05-16T07:25:35.569Z,51.156113
2023-05-16T07:26:35.655Z,51.156094
2023-05-16T07:27:35.597Z,51.156113
2023-05-16T07:28:35.462Z,51.156116
2023-05-16T07:29:35.509Z,51.156067
2023-05-16T07:30:35.488Z,51.156067
2023-05-16T07:31:35.464Z,51.156120
2023-05-16T07:38:40.769Z,51.156155
2023-05-16T07:39:40.795Z,51.156113
2023-05-16T07:40:40.728Z,51.156082
2023-05-16T07:41:41.093Z,51.156052
2023-05-16T07:42:40.698Z,51.156174
2023-05-16T07:43:40.709Z,51.156071
2023-05-16T07:44:40.722Z,51.156116
2023-05-16T07:45:40.703Z,51.156063
2023-05-16T07:46:40.766Z,51.156002
2023-05-16T07:47:40.652Z,51.156017
2023-05-16T07:48:40.595Z,51.156029
2023-05-16T07:49:40.618Z,51.156025
2023-05-16T07:50:40.887Z,51.156036
2023-05-16T07:51:40.634Z,51.156120
2023-05-16T07:52:40.627Z,51.156162
2023-05-16T07:53:40.566Z,51.156151
2023-05-16T07:54:40.559Z,51.156124
2023-05-16T07:55:40.561Z,51.156334
2023-05-16T07:56:40.553Z,51.156384
2023-05-16T07:57:40.569Z,51.156059
2023-05-16T07:58:40.593Z,51.156071
2023-05-16T07:59:40.562Z,51.156246
2023-05-16T08:00:40.514Z,51.156452
2023-05-16T08:01:40.507Z,51.155960
2023-05-16T08:02:40.603Z,51.156082
2023-05-16T08:03:40.603Z,51.156067
2023-05-16T08:04:40.472Z,51.156132
2023-05-16T08:05:40.458Z,51.156055
2023-05-16T08:06:40.457Z,51.156174
2023-05-16T08:07:40.471Z,51.156246
2023-05-16T08:08:40.418Z,51.156181
2023-05-16T08:09:40.500Z,51.156258
2023-05-16T08:10:40.417Z,51.156200
2023-05-16T08:11:40.420Z,51.156189
2023-05-16T08:12:40.777Z,51.156197
2023-05-16T08:13:40.374Z,51.156158
2023-05-16T08:14:40.428Z,51.156158
2023-05-16T08:15:40.413Z,51.156223
2023-05-16T08:16:40.500Z,51.156170
2023-05-16T08:17:40.378Z,51.156071
2023-05-16T08:18:40.398Z,51.156139
2023-05-16T08:19:40.322Z,51.156113
2023-05-16T08:20:40.352Z,51.156113
2023-05-16T08:21:40.286Z,51.156162
2023-05-16T08:22:40.275Z,51.156189
2023-05-16T08:23:40.373Z,51.156227
2023-05-16T08:24:40.283Z,51.156303
2023-05-16T08:25:40.341Z,51.156212
2023-05-16T08:26:40.311Z,51.156170
2023-05-16T08:27:40.289Z,51.156204
2023-05-16T08:28:41.271Z,51.156212
2023-05-16T08:29:40.378Z,51.156193
2023-05-16T08:30:42.442Z,51.156193
2023-05-16T08:31:41.547Z,51.156235
2023-05-16T08:32:40.294Z,51.156277
2023-05-16T08:33:40.187Z,51.156212
2023-05-16T08:34:40.233Z,51.156200
2023-05-16T08:35:40.301Z,51.156254
2023-05-16T08:36:40.349Z,51.156193
2023-05-16T08:37:40.187Z,51.156052
2023-05-16T08:38:40.134Z,51.156128
2023-05-16T08:39:40.115Z,51.156136
2023-05-16T08:40:40.139Z,51.156178
2023-05-16T08:41:40.173Z,51.156216
2023-05-16T08:42:40.170Z,51.156174
2023-05-16T08:43:40.421Z,51.156109
2023-05-16T08:44:40.109Z,51.156227
2023-05-16T08:45:40.143Z,51.156216
2023-05-16T08:46:40.816Z,51.156158
2023-05-16T08:47:40.405Z,51.156158
2023-05-16T08:48:40.057Z,51.156109
2023-05-16T08:49:40.196Z,51.156116
2023-05-16T08:50:40.069Z,51.156189
2023-05-16T08:51:40.041Z,51.156151
2023-05-16T08:52:40.660Z,51.156132
2023-05-16T08:53:40.008Z,51.156101
2023-05-16T08:54:40.072Z,51.156136
2023-05-16T08:56:12.558Z,51.156132
2023-05-16T08:56:40.230Z,51.156162
2023-05-16T08:57:40.361Z,51.156090
2023-05-16T08:58:39.999Z,51.156116
2023-05-16T08:59:40.744Z,51.156166
2023-05-16T09:00:39.992Z,51.156242
2023-05-16T09:01:40.086Z,51.156269
2023-05-16T09:02:39.936Z,51.156254
2023-05-16T09:03:39.930Z,51.156178
2023-05-16T09:04:39.873Z,51.156124
2023-05-16T09:05:39.953Z,51.156147
2023-05-16T09:06:39.840Z,51.156116
2023-05-16T09:07:39.866Z,51.156124
2023-05-16T09:08:39.888Z,51.156109
2023-05-16T09:09:39.883Z,51.156101
2023-05-16T09:10:39.884Z,51.156105
2023-05-16T09:11:39.857Z,51.156231
2023-05-16T09:12:39.836Z,51.156166
2023-05-16T09:14:12.514Z,51.156189
2023-05-16T09:14:39.981Z,51.156174
2023-05-16T09:15:40.023Z,51.156166
2023-05-16T09:16:40.356Z,51.156185
2023-05-16T09:17:43.103Z,51.156174
2023-05-16T09:18:41.101Z,51.156124
2023-05-16T09:19:39.932Z,51.156097
2023-05-16T09:20:39.774Z,51.156136
2023-05-16T09:21:39.751Z,51.156155
2023-05-16T09:22:39.700Z,51.156197
2023-05-16T09:23:39.931Z,51.156174
2023-05-16T09:24:39.653Z,51.156158
2023-05-16T09:25:39.717Z,51.156143
2023-05-16T09:26:39.702Z,51.156155
2023-05-16T09:27:39.662Z,51.156178
2023-05-16T09:29:12.573Z,51.156166
2023-05-16T09:29:40.208Z,51.156143
2023-05-16T09:30:39.804Z,51.156128
2023-05-16T09:31:39.638Z,51.156097
2023-05-16T09:32:39.653Z,51.156086
2023-05-16T09:34:12.251Z,51.156097
2023-05-16T09:34:39.820Z,51.156097
2023-05-16T09:35:45.519Z,51.156105
2023-05-16T09:36:43.798Z,51.156113
2023-05-16T09:37:40.095Z,51.156048
2023-05-16T09:38:39.551Z,51.156082
2023-05-16T09:39:39.532Z,51.156101
2023-05-16T09:40:39.604Z,51.156090
2023-05-16T09:41:40.836Z,51.156090
2023-05-16T09:42:39.521Z,51.156090
2023-05-16T09:43:41.119Z,51.156105
2023-05-16T09:44:40.350Z,51.156113
2023-05-16T09:46:12.540Z,51.156097
2023-05-16T09:46:39.811Z,51.156105
2023-05-16T09:47:39.626Z,51.156090
2023-05-16T09:48:39.456Z,51.156097
2023-05-16T09:49:39.625Z,51.156094
2023-05-16T09:50:39.508Z,51.156090
2023-05-16T09:51:39.417Z,51.156101
2023-05-16T09:52:39.386Z,51.156094
2023-05-16T09:53:39.489Z,51.156082
2023-05-16T09:54:39.424Z,51.156090
2023-05-16T09:55:39.412Z,51.156113
2023-05-16T09:56:39.489Z,51.156166
2023-05-16T09:57:39.386Z,51.156105
2023-05-16T09:58:39.344Z,51.156101
2023-05-16T09:59:39.630Z,51.156090
2023-05-16T10:00:39.358Z,51.156078
2023-05-16T10:01:39.313Z,51.156055
2023-05-16T10:02:39.384Z,51.156071
2023-05-16T10:03:39.431Z,51.156052
2023-05-16T10:04:39.334Z,51.156021
2023-05-16T10:05:39.619Z,51.155991
2023-05-16T10:06:39.262Z,51.155991
2023-05-16T10:07:39.826Z,51.156040
2023-05-16T10:08:39.437Z,51.156033
2023-05-16T10:09:39.290Z,51.156055
2023-05-16T10:10:39.261Z,51.156067
2023-05-16T10:11:39.263Z,51.156048
2023-05-16T10:12:39.429Z,51.156040
2023-05-16T10:13:39.198Z,51.156036
2023-05-16T10:14:39.727Z,51.156071
2023-05-16T10:15:39.311Z,51.156082
2023-05-16T10:16:39.224Z,51.156052
2023-05-16T10:17:39.281Z,51.156113
2023-05-16T10:18:39.288Z,51.156124
2023-05-16T10:19:39.199Z,51.156128
2023-05-16T10:20:39.133Z,51.156116
2023-05-16T10:21:39.162Z,51.156109
2023-05-16T10:22:39.084Z,51.156082
2023-05-16T10:23:39.137Z,51.156059
2023-05-16T10:24:39.472Z,51.156071
2023-05-16T10:25:39.453Z,51.156071
2023-05-16T10:26:39.442Z,51.156059
2023-05-16T10:27:39.014Z,51.156071
2023-05-16T10:28:39.492Z,51.156082
2023-05-16T10:29:52.918Z,51.156094
2023-05-16T10:30:40.106Z,51.156120
2023-05-16T10:31:39.035Z,51.156116
2023-05-16T10:32:40.626Z,51.156120
2023-05-16T10:33:39.015Z,51.156071
2023-05-16T10:34:40.393Z,51.156078
2023-05-16T10:35:38.965Z,51.156063
2023-05-16T10:36:39.140Z,51.156082
2023-05-16T10:37:39.285Z,51.156101
2023-05-16T10:38:39.002Z,51.156029
2023-05-16T10:39:39.048Z,51.156036
2023-05-16T10:40:38.985Z,51.156052
2023-05-16T10:41:39.024Z,51.156063
2023-05-16T10:42:38.861Z,51.156101
2023-05-16T10:43:38.921Z,51.156124
2023-05-16T10:44:39.317Z,51.156132
2023-05-16T10:45:38.935Z,51.156124
2023-05-16T10:46:38.926Z,51.156113
2023-05-16T10:47:38.895Z,51.156120
2023-05-16T10:48:39.124Z,51.156124
2023-05-16T10:49:38.827Z,51.156116
2023-05-16T10:50:38.874Z,51.156082
2023-05-16T10:51:39.251Z,51.156094
2023-05-16T10:52:39.205Z,51.156078
2023-05-16T10:53:39.439Z,51.156040
2023-05-16T10:55:12.718Z,51.156075
2023-05-16T10:55:39.197Z,51.156055
2023-05-16T10:56:38.900Z,51.156082
2023-05-16T10:57:38.787Z,51.156109
2023-05-16T10:58:39.249Z,51.156116
2023-05-16T10:59:38.874Z,51.156132
2023-05-16T11:00:38.733Z,51.156109
2023-05-16T11:01:38.744Z,51.156109
2023-05-16T11:02:38.841Z,51.156120
2023-05-16T11:03:39.024Z,51.156178
2023-05-16T11:04:38.961Z,51.156193
2023-05-16T11:05:39.456Z,51.156120
2023-05-16T11:06:39.287Z,51.156101
2023-05-16T11:07:38.634Z,51.156097
2023-05-16T11:08:38.917Z,51.156136
2023-05-16T11:09:38.621Z,51.156116
2023-05-16T11:10:38.655Z,51.156113
2023-05-16T11:11:38.716Z,51.156132
2023-05-16T11:12:38.676Z,51.156132
2023-05-16T11:13:38.616Z,51.156109
2023-05-16T11:14:38.662Z,51.156105
2023-05-16T11:15:38.557Z,51.156105
2023-05-16T11:16:38.796Z,51.156105
2023-05-16T11:17:40.618Z,51.156101
2023-05-16T11:18:38.731Z,51.156105
2023-05-16T11:19:38.611Z,51.156101
2023-05-16T11:20:38.915Z,51.156136
2023-05-16T11:21:38.697Z,51.156139
2023-05-16T11:22:38.555Z,51.156139
2023-05-16T11:23:39.117Z,51.156151
2023-05-16T11:24:38.455Z,51.156124
2023-05-16T11:25:39.245Z,51.156128
2023-05-16T11:26:38.484Z,51.156136
2023-05-16T11:27:38.449Z,51.156143
2023-05-16T11:28:38.491Z,51.156124
2023-05-16T11:29:38.784Z,51.156136
2023-05-16T11:30:38.454Z,51.156147
2023-05-16T11:31:38.455Z,51.156116
2023-05-16T11:32:38.659Z,51.156155
2023-05-16T11:33:38.700Z,51.156124
2023-05-16T11:34:38.557Z,51.156101
2023-05-16T11:35:38.434Z,51.156101
2023-05-16T11:36:38.390Z,51.156109
2023-05-16T11:37:38.370Z,51.156113
2023-05-16T11:38:38.313Z,51.156128
2023-05-16T11:39:38.349Z,51.156109
2023-05-16T11:40:39.365Z,51.156094
2023-05-16T11:55:28.301Z,51.156158
2023-05-16T11:56:15.401Z,51.156116
2023-05-16T11:57:09.424Z,51.156075
2023-05-16T11:58:15.472Z,51.156082
2023-05-16T11:59:16.898Z,51.156055
2023-05-16T12:00:15.434Z,51.156097
2023-05-16T12:01:15.375Z,51.156097
2023-05-16T12:01:43.026Z,51.156105
2023-05-16T12:03:15.431Z,51.156086
2023-05-16T12:03:43.287Z,51.156101
2023-05-16T12:05:16.658Z,51.156094
2023-05-16T12:06:15.309Z,51.156097
2023-05-16T12:07:15.274Z,51.156113
2023-05-16T12:08:15.309Z,51.156094
2023-05-16T12:09:18.555Z,51.156113
2023-05-16T12:10:15.472Z,51.156105
2023-05-16T12:10:42.914Z,51.156090
2023-05-16T12:12:15.232Z,51.156101
2023-05-16T12:13:16.800Z,51.156116
2023-05-16T12:14:16.691Z,51.156105
2023-05-16T12:15:15.264Z,51.156101
2023-05-16T12:16:15.327Z,51.156116
2023-05-16T12:17:15.187Z,51.156101
2023-05-16T12:17:42.920Z,51.156086
2023-05-16T12:19:16.541Z,51.156097
2023-05-16T12:20:15.205Z,51.156086
2023-05-16T12:21:15.244Z,51.156113
2023-05-16T12:22:15.319Z,51.156097
2023-05-16T12:22:42.912Z,51.156109
2023-05-16T12:24:15.280Z,51.156101
2023-05-16T12:24:42.942Z,51.156097
2023-05-16T12:26:15.191Z,51.156105
2023-05-16T12:26:42.978Z,51.156120
2023-05-16T12:28:18.574Z,51.156113
2023-05-16T12:28:43.110Z,51.156105
2023-05-16T12:30:15.089Z,51.156109
2023-05-16T12:31:29.365Z,51.156094
2023-05-16T12:32:16.331Z,51.156105
2023-05-16T12:38:31.460Z,51.156212
2023-05-16T12:38:59.078Z,51.156170
2023-05-16T12:40:31.425Z,51.156170
2023-05-16T12:46:20.161Z,51.156239
2023-05-16T12:47:52.572Z,51.156185
2023-05-16T12:48:52.505Z,51.156151
2023-05-16T12:49:53.217Z,51.156094
2023-05-16T12:50:48.822Z,51.156082
2023-05-16T12:51:52.735Z,51.156082
2023-05-16T12:52:20.008Z,51.156105
2023-05-16T13:14:41.909Z,51.156063
2023-05-16T13:16:12.687Z,51.156075
2023-05-16T13:16:40.616Z,51.156120
2023-05-16T13:17:40.317Z,51.156055
2023-05-16T13:18:40.696Z,51.156055
2023-05-16T13:20:13.906Z,51.156101
2023-05-16T13:20:40.607Z,51.156078
2023-05-16T13:21:40.349Z,51.156094
2023-05-16T13:22:40.835Z,51.156116
2023-05-16T13:24:14.139Z,51.156124
2023-05-16T13:24:40.297Z,51.156105
2023-05-16T13:25:40.264Z,51.156109
2023-05-16T13:27:12.604Z,51.156082
2023-05-16T13:27:40.449Z,51.156128
2023-05-16T13:28:40.373Z,51.156147
2023-05-16T13:29:40.231Z,51.156071
2023-05-16T13:30:40.023Z,51.156136
2023-05-16T13:37:56.541Z,51.156128
2023-05-16T13:39:28.710Z,51.156143
2023-05-16T13:39:56.432Z,51.156143
2023-05-16T13:40:56.492Z,51.156143
2023-05-16T13:41:56.396Z,51.156143
2023-05-16T13:42:56.171Z,51.155979
2023-05-16T13:43:56.200Z,51.156097
2023-05-16T13:44:56.145Z,51.155998
2023-05-16T13:45:56.172Z,51.155933
2023-05-16T13:46:56.154Z,51.156067
2023-05-16T13:48:28.908Z,51.155972
2023-05-16T13:48:56.374Z,51.155994
2023-05-16T14:04:45.789Z,51.156017
2023-05-16T14:05:12.842Z,51.156029
2023-05-16T14:06:12.883Z,51.156075
2023-05-16T14:07:12.600Z,51.156044
2023-05-16T14:08:12.343Z,51.156128
2023-05-16T14:09:12.474Z,51.156101
2023-05-16T14:10:12.389Z,51.156113
2023-05-16T14:11:12.485Z,51.156094
2023-05-16T14:12:12.329Z,51.156124
2023-05-16T14:13:12.353Z,51.156136
2023-05-16T14:14:12.373Z,51.156120
2023-05-16T14:15:12.369Z,51.156071
2023-05-16T14:16:12.327Z,51.156002
2023-05-16T14:17:12.341Z,51.155979
2023-05-16T14:26:54.256Z,51.156052
2023-05-16T14:28:25.352Z,51.156040
2023-05-16T14:29:25.439Z,51.156071
2023-05-16T14:30:24.034Z,51.155952
2023-05-16T14:31:24.208Z,51.156013
2023-05-16T14:32:24.127Z,51.156044
2023-05-16T14:33:25.047Z,51.156075
2023-05-16T14:33:51.661Z,51.156082
2023-05-16T14:35:24.028Z,51.156071
2023-05-16T14:36:24.203Z,51.156109
2023-05-16T14:37:24.124Z,51.156094
2023-05-16T14:37:51.934Z,51.156105
2023-05-16T14:38:51.833Z,51.156086
2023-05-16T14:39:51.454Z,51.156071
2023-05-16T14:41:23.938Z,51.156048
2023-05-16T14:42:25.255Z,51.156036
2023-05-16T14:43:25.255Z,51.156025
2023-05-16T14:43:51.503Z,51.156029
2023-05-16T14:44:51.680Z,51.155998
2023-05-16T14:45:51.525Z,51.156025
2023-05-16T14:55:37.774Z,51.155899
2023-05-16T14:56:39.863Z,51.156048
2023-05-16T14:57:05.328Z,51.156109
2023-05-16T14:58:37.639Z,51.156139
2023-05-16T14:59:38.503Z,51.156170
2023-05-16T15:00:05.470Z,51.156162
2023-05-16T15:06:54.711Z,51.156570
2023-05-16T15:07:21.521Z,51.156956
2023-05-16T15:08:53.512Z,51.156902
2023-05-16T15:09:53.434Z,51.156731
2023-05-16T15:10:54.848Z,51.156548
2023-05-16T15:11:53.734Z,51.156532
2023-05-16T15:12:21.137Z,51.156422
2023-05-16T15:13:20.916Z,51.156273
2023-05-16T15:14:54.742Z,51.156265
2023-05-16T15:15:21.268Z,51.156292
2023-05-16T15:16:53.617Z,51.156395
2023-05-16T15:17:20.970Z,51.156387
2023-05-16T15:18:21.737Z,51.156322
2023-05-16T15:19:55.438Z,51.156330
2023-05-16T15:20:22.652Z,51.156319
2023-05-16T15:21:22.024Z,51.156246
2023-05-16T15:22:53.292Z,51.156338
2023-05-16T15:23:53.551Z,51.156269
2023-05-16T15:24:21.048Z,51.156273
2023-05-16T15:25:20.996Z,51.156307
2023-05-16T15:37:32.390Z,51.156574
2023-05-16T15:39:05.992Z,51.156616
2023-05-16T15:39:31.386Z,51.156174
2023-05-16T15:40:31.167Z,51.156181
2023-05-16T15:42:10.849Z,51.156124
2023-05-16T15:42:32.216Z,51.156162
2023-05-16T16:08:23.214Z,51.156212
2023-05-16T16:09:49.362Z,51.156773
2023-05-16T16:10:22.664Z,51.156017
2023-05-16T16:11:22.973Z,51.156036
2023-05-16T16:12:55.164Z,51.156090
2023-05-16T16:13:21.780Z,51.156063
2023-05-16T16:14:54.231Z,51.156071
2023-05-16T16:15:21.927Z,51.156063
2023-05-16T16:16:22.153Z,51.156044
2023-05-16T16:17:21.717Z,51.156040
2023-05-16T16:18:54.206Z,51.156040
2023-05-16T16:19:54.279Z,51.156055
2023-05-16T16:20:22.804Z,51.156040
2023-05-16T16:21:55.114Z,51.156063
2023-05-16T16:22:54.110Z,51.156082
2023-05-16T16:28:12.450Z,51.156387
2023-05-16T16:28:39.983Z,51.156124
2023-05-16T16:30:14.984Z,51.156113
2023-05-16T16:41:53.059Z,51.155979
2023-05-16T16:42:52.993Z,51.156075
2023-05-16T16:43:54.255Z,51.156082
2023-05-16T16:50:31.130Z,51.156086
2023-05-16T16:50:59.024Z,51.156090
2023-05-16T16:51:58.245Z,51.156120
2023-05-16T16:52:58.539Z,51.156094
2023-05-16T16:54:31.916Z,51.156078
2023-05-16T16:54:58.390Z,51.156090
2023-05-16T16:55:58.130Z,51.156078
2023-05-16T16:56:58.500Z,51.156059
2023-05-16T16:57:58.312Z,51.156059
2023-05-16T16:58:58.500Z,51.156059
2023-05-16T16:59:58.407Z,51.156052
2023-05-16T17:01:01.172Z,51.156094
2023-05-16T17:01:58.116Z,51.156071
2023-05-16T17:03:31.919Z,51.156086
2023-05-16T17:03:58.238Z,51.156063
2023-05-16T17:04:58.320Z,51.156078
2023-05-16T17:06:30.570Z,51.156086
2023-05-16T17:06:59.261Z,51.156101
2023-05-16T17:07:58.746Z,51.156101
2023-05-16T17:08:58.513Z,51.156094
2023-05-16T17:09:58.120Z,51.156101
2023-05-16T17:10:59.444Z,51.156097
2023-05-16T17:17:10.108Z,51.156048
2023-05-16T17:18:10.760Z,51.156048
2023-05-16T17:19:10.499Z,51.156048
2023-05-16T17:20:42.196Z,51.156048
2023-05-16T17:21:10.835Z,51.156048
2023-05-16T17:22:10.552Z,51.156048
2023-05-16T17:23:09.924Z,51.156048
2023-05-16T17:24:09.525Z,51.156048
2023-05-16T17:25:09.611Z,51.156048
2023-05-16T17:26:09.594Z,51.156048
2023-05-16T17:27:10.109Z,51.156048
2023-05-16T17:28:42.357Z,51.156048
2023-05-16T17:29:36.201Z,51.156048
2023-05-16T17:30:10.445Z,51.156048
2023-05-16T17:31:09.540Z,51.156048
2023-05-16T17:32:09.596Z,51.156048
2023-05-16T17:33:09.697Z,51.156048
2023-05-16T17:34:09.501Z,51.156048
2023-05-16T17:35:09.601Z,51.156048
2023-05-16T17:36:09.717Z,51.156048
2023-05-16T17:49:26.815Z,51.156120
2023-05-16T17:50:26.324Z,51.156052
2023-05-16T17:51:26.270Z,51.156044
2023-05-16T17:52:26.152Z,51.156101
2023-05-16T17:53:27.433Z,51.156101
2023-05-16T17:54:26.396Z,51.156101
2023-05-16T17:55:26.828Z,51.156101
2023-05-16T17:56:26.144Z,51.156151
2023-05-16T17:57:26.699Z,51.156116
2023-05-16T17:58:26.576Z,51.156082
2023-05-16T17:59:27.189Z,51.156010
2023-05-16T18:00:27.109Z,51.156082
2023-05-16T18:01:26.174Z,51.156094
2023-05-16T18:02:28.744Z,51.156132
2023-05-16T18:03:26.857Z,51.156101
2023-05-16T18:04:26.380Z,51.156143
2023-05-16T18:05:27.204Z,51.156166
2023-05-16T18:06:26.010Z,51.156116
2023-05-16T18:07:26.040Z,51.156208
2023-05-16T18:08:26.070Z,51.156105
2023-05-16T18:09:25.980Z,51.156113
2023-05-16T18:10:29.459Z,51.156116
2023-05-16T18:11:26.350Z,51.156170
2023-05-16T18:12:26.252Z,51.156193
2023-05-16T18:13:25.956Z,51.156147
2023-05-16T18:14:26.063Z,51.156136
2023-05-16T18:15:26.231Z,51.156067
2023-05-16T18:16:25.903Z,51.156105
2023-05-16T18:17:25.989Z,51.156090
2023-05-16T18:18:26.043Z,51.156090
2023-05-16T18:19:26.041Z,51.156090
2023-05-16T18:20:26.004Z,51.156109
2023-05-16T18:21:25.904Z,51.156082
2023-05-16T18:22:26.051Z,51.156071
2023-05-16T18:23:26.267Z,51.156075
2023-05-16T18:24:26.994Z,51.156086
2023-05-16T18:25:26.961Z,51.156071
2023-05-16T18:26:26.136Z,51.156078
2023-05-16T18:27:26.094Z,51.156044
2023-05-16T18:28:25.893Z,51.156139
2023-05-16T18:29:26.602Z,51.156078
2023-05-16T18:30:26.010Z,51.156067
2023-05-16T18:31:25.913Z,51.156078
2023-05-16T18:32:25.883Z,51.156075
2023-05-16T18:33:25.869Z,51.156063
2023-05-16T18:34:25.750Z,51.156048
2023-05-16T18:35:26.251Z,51.156063
2023-05-16T18:36:25.835Z,51.156071
2023-05-16T18:37:25.841Z,51.156071
2023-05-16T18:38:32.514Z,51.156078
2023-05-16T18:39:26.719Z,51.156071
2023-05-16T18:40:26.222Z,51.156101
2023-05-16T18:41:25.736Z,51.156082
2023-05-16T18:42:25.852Z,51.156071
2023-05-16T18:43:25.849Z,51.156059
2023-05-16T18:44:25.826Z,51.156052
2023-05-16T18:45:26.807Z,51.156075
2023-05-16T18:46:25.756Z,51.156055
2023-05-16T18:47:25.764Z,51.156059
2023-05-16T18:48:25.802Z,51.156048
2023-05-16T18:49:25.684Z,51.156021
2023-05-16T18:50:26.303Z,51.156044
2023-05-16T18:51:25.710Z,51.156086
2023-05-16T18:52:25.755Z,51.156086
2023-05-16T18:53:25.572Z,51.156071
2023-05-16T18:54:25.579Z,51.156075
2023-05-16T18:55:25.651Z,51.156071
2023-05-16T18:56:25.530Z,51.156040
2023-05-16T18:57:25.520Z,51.156063
2023-05-16T18:58:25.470Z,51.156067
2023-05-16T18:59:25.472Z,51.156086
2023-05-16T19:00:25.501Z,51.156075
2023-05-16T19:01:25.540Z,51.156055
2023-05-16T19:02:37.846Z,51.156048
2023-05-16T19:03:26.625Z,51.156055
2023-05-16T19:04:25.589Z,51.156040
2023-05-16T19:05:25.769Z,51.156063
2023-05-16T19:06:25.435Z,51.156059
2023-05-16T19:07:25.452Z,51.156067
2023-05-16T19:08:27.124Z,51.156055
2023-05-16T19:09:26.471Z,51.156094
2023-05-16T19:10:25.641Z,51.156097
2023-05-16T19:11:25.517Z,51.156094
2023-05-16T19:12:25.374Z,51.156052
2023-05-16T19:13:25.453Z,51.156067
2023-05-16T19:14:25.565Z,51.156105
2023-05-16T19:15:25.922Z,51.156078
2023-05-16T19:16:28.560Z,51.156071
2023-05-16T19:17:25.824Z,51.156067
2023-05-16T19:18:26.221Z,51.156082
2023-05-16T19:19:27.232Z,51.156075
2023-05-16T19:20:25.653Z,51.156067
2023-05-16T19:21:26.252Z,51.156082
2023-05-16T19:22:34.764Z,51.156082
2023-05-16T19:23:29.681Z,51.156067
2023-05-16T19:24:25.481Z,51.156063
2023-05-16T19:25:25.306Z,51.156090
2023-05-16T19:26:25.469Z,51.156086
2023-05-16T19:27:26.471Z,51.156078
2023-05-16T19:28:25.462Z,51.156067
2023-05-16T19:29:25.230Z,51.156075
2023-05-16T19:30:25.297Z,51.156082
2023-05-16T19:31:27.877Z,51.156090
2023-05-16T19:32:25.173Z,51.156094
2023-05-16T19:33:25.805Z,51.156078
2023-05-16T19:34:26.318Z,51.156067
2023-05-16T19:35:25.326Z,51.156101
2023-05-16T19:36:26.211Z,51.156086
2023-05-16T19:37:25.398Z,51.156090
2023-05-16T19:38:25.841Z,51.156097
2023-05-16T19:39:25.794Z,51.156075
2023-05-16T19:40:25.076Z,51.156090
2023-05-16T19:41:25.267Z,51.156094
2023-05-16T19:42:25.034Z,51.156086
2023-05-16T19:43:25.103Z,51.156116
2023-05-16T19:44:25.278Z,51.156082
2023-05-16T19:45:25.760Z,51.156086
2023-05-16T19:46:25.222Z,51.156094
2023-05-16T19:47:25.122Z,51.156116
2023-05-16T19:48:25.295Z,51.156078
2023-05-16T19:49:26.166Z,51.156136
2023-05-16T19:50:25.060Z,51.156120
2023-05-16T19:51:40.291Z,51.156139
2023-05-16T19:52:27.070Z,51.156132
2023-05-16T19:53:25.385Z,51.156124
2023-05-16T19:54:25.064Z,51.156101
2023-05-16T19:55:25.104Z,51.156113
2023-05-16T19:56:25.002Z,51.156116
2023-05-16T19:57:25.221Z,51.156143
2023-05-16T19:58:24.993Z,51.156128
2023-05-16T19:59:25.505Z,51.156116
2023-05-16T20:00:24.930Z,51.156120
2023-05-16T20:01:25.006Z,51.156147
2023-05-16T20:02:24.929Z,51.156128
2023-05-16T20:03:25.189Z,51.156109
2023-05-16T20:04:25.015Z,51.156078
2023-05-16T20:05:24.978Z,51.156082
2023-05-16T20:06:24.917Z,51.156105
2023-05-16T20:07:24.933Z,51.156128
2023-05-16T20:08:24.888Z,51.156109
2023-05-16T20:09:25.173Z,51.156105
2023-05-16T20:10:24.774Z,51.156109
2023-05-16T20:11:24.764Z,51.156105
2023-05-16T20:12:24.941Z,51.156162
2023-05-16T20:13:25.248Z,51.156136
2023-05-16T20:14:25.061Z,51.156166
2023-05-16T20:15:24.737Z,51.156151
2023-05-16T20:16:24.924Z,51.156143
2023-05-16T20:17:24.765Z,51.156132
2023-05-16T20:18:24.874Z,51.156151
2023-05-16T20:19:25.203Z,51.156109
2023-05-16T20:20:25.219Z,51.156178
2023-05-16T20:21:25.464Z,51.156178
2023-05-16T20:22:25.926Z,51.156162
2023-05-16T20:23:25.050Z,51.156181
2023-05-16T20:24:25.379Z,51.156166
2023-05-16T20:25:25.631Z,51.156143
2023-05-16T20:26:25.021Z,51.156132
2023-05-16T20:27:24.892Z,51.156113
2023-05-16T20:28:27.688Z,51.156147
2023-05-16T20:29:25.411Z,51.156128
2023-05-16T20:30:24.806Z,51.156109
2023-05-16T20:31:25.281Z,51.156128
2023-05-16T20:32:24.910Z,51.156151
2023-05-16T20:33:25.097Z,51.156120
2023-05-16T20:34:25.324Z,51.156124
2023-05-16T20:35:24.852Z,51.156124
2023-05-16T20:36:25.829Z,51.156128
2023-05-16T20:37:25.520Z,51.156139
2023-05-16T20:38:25.852Z,51.156136
2023-05-16T20:39:25.166Z,51.156132
2023-05-16T20:40:24.807Z,51.156113
2023-05-16T20:41:25.117Z,51.156105
2023-05-16T20:42:25.443Z,51.156086
2023-05-16T20:43:26.724Z,51.156116
2023-05-16T20:44:25.188Z,51.156094
2023-05-16T20:45:24.663Z,51.156113
2023-05-16T20:46:24.711Z,51.156116
2023-05-16T20:47:25.316Z,51.156116
2023-05-16T20:48:24.814Z,51.156078
2023-05-16T20:49:24.578Z,51.156090
2023-05-16T20:50:24.675Z,51.156116
2023-05-16T20:51:24.896Z,51.156116
2023-05-16T20:52:24.749Z,51.156094
2023-05-16T20:53:24.570Z,51.156143
2023-05-16T20:54:26.264Z,51.156124
2023-05-16T20:55:24.812Z,51.156113
2023-05-16T20:56:24.987Z,51.156113
2023-05-16T20:57:25.122Z,51.156075
2023-05-16T20:58:24.556Z,51.156059
2023-05-16T20:59:24.592Z,51.156094
2023-05-16T21:00:26.059Z,51.156136
2023-05-16T21:01:25.516Z,51.156128
2023-05-16T21:02:25.274Z,51.156132
2023-05-16T21:03:26.132Z,51.156124
2023-05-16T21:04:24.729Z,51.156151
2023-05-16T21:05:34.834Z,51.156147
2023-05-16T21:06:26.604Z,51.156105
2023-05-16T21:07:24.402Z,51.156090
2023-05-16T21:08:24.393Z,51.156113
2023-05-16T21:09:24.384Z,51.156120
2023-05-16T21:10:24.300Z,51.156094